Aérodrome :
LOGIN :

S'inscrire | Disclaimer

   EN    FR    IT 

 










Légende :    VFR   VFR Marginal   IFR   IFR Intensif   IFR Très Intensif
Visi : 
Plafond : 
>= 8 km
>= 3000ft
5 à 8 km
1000 à 3000 ft
1500m à 5 km
500 à 1000 ft
800 à 1500m
200 à 500 ft
< 800m
< 200 ft
Symboles :   Orages  Brouillard  Fortes neiges  Fortes précipitations  Vent > 20 kt
SIGMETs :   Divers  Orages  Givrage  Turbulence  Onde Orograph.  Cendres Volcan.







- Altitude de l'aérodrome : 291 ft
- Code IATA : ORY
- Voir les cartes d'approche


LFPO - Paris-Orly

DERNIER METAR :
  • 210930Z 29014KT 9999 FEW032 BKN220 16/10 Q1013 TEMPO 30015G28KT

METARs EXPIRÉS :
  • 210900Z 28014KT 250V310 9999 FEW026 SCT150 BKN240 16/11 Q1013 TEMPO 30015G28KT
  • 210830Z 28013KT 9999 FEW020 SCT042 BKN150 15/11 Q1012 TEMPO 22020G35KT
  • 210800Z 28010KT 250V310 9999 FEW022 BKN042 14/12 Q1012 TEMPO 22020G35KT
  • 210730Z 28010KT 250V320 9999 -RA FEW010 OVC035 14/12 Q1011 TEMPO 22020G35KT
  • 210700Z 29013KT 9999 -RA FEW009 OVC033 13/12 Q1011 TEMPO 22020G35KT

TAF AMD TAF LFPO
Valide du 21 à 06h jusqu'au 22 à 12h UTC


210653Z 2106/2212 29014KT 9999 BKN030
TEMPO 2106/2116 29015G28KT
BECMG 2203/2206 22005KT
ATIS : +33 1 49 75 65 80
Pas de NOTAMs connus pour ce terrain.



MET'MAP, la Météo Aéronautique d'un coup d'oeil ! - Copyright ORBIFLY Décembre 2007 - Disclaimer

ORBIFLY MET'MAP TEAM :

Programmation & Développement : Alexandra Zaïnal
Conception & Développement : Baudouin d'Aumeries
Co-Programmation & Développement : Marc-Olivier Méhu
Soutien technique & logistique : Manuel Goepfert

Contact : metmap@orbifly.com




SOURCES & CREDITS :

   NOAA